Time;durP1;ratioP1;P1;durP2;ratioP2;P2;SDS_P1;SDS_P2;PMS_P1;PMS_P2;Temp;Humidity;BMP_temperature;BMP_pressure;BME280_temperature;BME280_humidity;BME280_pressure;Samples;Min_cycle;Max_cycle;Signal;HPM_P1;HPM_P2
2024/01/20 00:01:54;;;;;;;18.00;9.70;;;1.90;82.10;;;;;;5133298;27;20052;-70
2024/01/20 00:04:21;;;;;;;19.42;10.25;;;1.90;82.00;;;;;;5156475;27;20138;-71
2024/01/20 00:06:50;;;;;;;17.75;10.15;;;1.90;82.10;;;;;;5145763;27;20142;-70
2024/01/20 00:09:17;;;;;;;17.10;10.60;;;1.80;82.00;;;;;;5154737;27;20074;-70
2024/01/20 00:11:44;;;;;;;17.60;9.65;;;1.80;82.20;;;;;;5147592;27;20259;-70
2024/01/20 00:14:11;;;;;;;17.80;10.80;;;1.80;82.20;;;;;;5149779;27;20070;-70
2024/01/20 00:16:38;;;;;;;14.75;8.68;;;1.80;82.30;;;;;;5128993;27;20058;-70
2024/01/20 00:19:05;;;;;;;15.05;10.27;;;1.70;82.40;;;;;;5148764;27;20142;-70
2024/01/20 00:21:32;;;;;;;17.30;10.13;;;1.70;82.40;;;;;;5139203;27;20157;-70
2024/01/20 00:24:01;;;;;;;16.27;10.45;;;1.60;82.60;;;;;;5143570;27;20346;-71
2024/01/20 00:26:28;;;;;;;13.18;8.10;;;1.60;82.60;;;;;;5115919;27;20598;-70
2024/01/20 00:28:55;;;;;;;16.23;10.20;;;1.60;82.70;;;;;;5149803;27;20913;-71
2024/01/20 00:31:22;;;;;;;18.23;11.27;;;1.60;82.70;;;;;;5147615;27;20100;-70
2024/01/20 00:33:49;;;;;;;16.17;9.87;;;1.50;82.80;;;;;;5141120;27;20051;-70
2024/01/20 00:36:16;;;;;;;18.30;12.30;;;1.50;82.80;;;;;;5136031;27;20264;-70
2024/01/20 00:38:43;;;;;;;16.65;7.65;;;1.50;82.90;;;;;;5147877;27;20599;-70
2024/01/20 00:41:11;;;;;;;18.52;10.20;;;1.50;83.00;;;;;;5132148;27;20047;-70
2024/01/20 00:43:38;;;;;;;18.17;9.88;;;1.50;82.90;;;;;;5149549;27;20139;-70
2024/01/20 00:46:05;;;;;;;22.03;12.80;;;1.50;83.10;;;;;;5167853;27;20070;-70
2024/01/20 00:48:32;;;;;;;20.50;13.57;;;1.50;83.20;;;;;;5168199;27;20286;-70
2024/01/20 00:51:03;;;;;;;16.25;10.07;;;1.40;83.20;;;;;;5155506;27;20146;-70
2024/01/20 00:53:30;;;;;;;19.67;10.70;;;1.40;83.10;;;;;;5134747;27;20196;-70
2024/01/20 00:55:57;;;;;;;17.88;11.05;;;1.40;83.20;;;;;;5143356;27;20046;-70
2024/01/20 00:58:25;;;;;;;17.57;12.73;;;1.40;83.20;;;;;;5135430;27;20043;-70
2024/01/20 01:00:53;;;;;;;20.75;11.95;;;1.40;83.30;;;;;;5147045;27;20719;-70
2024/01/20 01:03:20;;;;;;;18.70;10.98;;;1.40;83.50;;;;;;5147988;27;20061;-70
2024/01/20 01:05:47;;;;;;;18.65;9.82;;;1.40;83.30;;;;;;5167226;27;20129;-70
2024/01/20 01:08:14;;;;;;;20.35;11.20;;;1.40;83.30;;;;;;5156851;27;20142;-70
2024/01/20 01:10:41;;;;;;;17.53;10.63;;;1.40;83.30;;;;;;5159319;27;20071;-70
2024/01/20 01:13:08;;;;;;;22.13;13.13;;;1.30;83.40;;;;;;5147622;27;20343;-70
2024/01/20 01:15:37;;;;;;;21.33;13.13;;;1.30;83.40;;;;;;5144500;27;20074;-70
2024/01/20 01:18:05;;;;;;;23.63;13.57;;;1.30;83.50;;;;;;5140959;27;20051;-70
2024/01/20 01:20:32;;;;;;;20.30;13.77;;;1.20;83.50;;;;;;5128312;27;20039;-70
2024/01/20 01:22:59;;;;;;;14.73;9.23;;;1.20;83.50;;;;;;5151253;27;20055;-70
2024/01/20 01:25:26;;;;;;;21.45;12.27;;;1.20;83.50;;;;;;5147202;27;20257;-70
2024/01/20 01:27:53;;;;;;;21.35;12.23;;;1.20;83.60;;;;;;5145090;27;20078;-71
2024/01/20 01:30:20;;;;;;;18.38;11.13;;;1.20;83.70;;;;;;5146549;27;20136;-70
2024/01/20 01:32:48;;;;;;;20.13;12.70;;;1.20;83.70;;;;;;5161794;27;20069;-70
2024/01/20 01:35:15;;;;;;;22.47;14.27;;;1.20;83.50;;;;;;5149072;27;20130;-71
2024/01/20 01:37:42;;;;;;;25.05;14.52;;;1.10;83.50;;;;;;5146620;27;20289;-70
2024/01/20 01:40:10;;;;;;;23.02;13.48;;;1.10;83.70;;;;;;5139099;27;20218;-71
2024/01/20 01:42:37;;;;;;;25.00;14.75;;;1.10;83.70;;;;;;5148175;27;20643;-70
2024/01/20 01:45:04;;;;;;;20.50;12.40;;;1.10;83.90;;;;;;5144735;27;20133;-70
2024/01/20 01:47:31;;;;;;;23.27;14.70;;;1.10;84.00;;;;;;5151060;27;20074;-70
2024/01/20 01:50:00;;;;;;;20.70;12.85;;;1.10;84.00;;;;;;5148923;27;20280;-70
2024/01/20 01:52:27;;;;;;;26.40;15.15;;;1.10;84.00;;;;;;5140982;27;20071;-70
2024/01/20 01:54:55;;;;;;;23.88;14.82;;;1.10;83.90;;;;;;5147739;27;20557;-71
2024/01/20 01:57:24;;;;;;;22.83;12.48;;;1.00;83.90;;;;;;5159780;27;20135;-70
2024/01/20 01:59:51;;;;;;;21.57;13.97;;;1.00;83.90;;;;;;5148670;27;20043;-70
2024/01/20 02:02:18;;;;;;;23.42;14.82;;;1.00;83.90;;;;;;5146895;27;20430;-70
2024/01/20 02:04:45;;;;;;;26.15;15.07;;;1.00;84.10;;;;;;5145170;27;20075;-70
2024/01/20 02:07:15;;;;;;;23.75;13.73;;;1.00;84.20;;;;;;5130122;27;20051;-70
2024/01/20 02:09:45;;;;;;;27.20;15.70;;;1.00;84.10;;;;;;5127941;27;20841;-70
2024/01/20 02:12:14;;;;;;;27.77;17.33;;;1.10;84.20;;;;;;5139628;27;20063;-70
2024/01/20 02:14:43;;;;;;;23.83;15.20;;;1.00;84.20;;;;;;5147505;27;20303;-70
2024/01/20 02:17:10;;;;;;;23.70;14.27;;;1.00;84.00;;;;;;5149868;27;20047;-70
2024/01/20 02:19:38;;;;;;;25.90;13.95;;;1.10;84.00;;;;;;5130304;27;20083;-70
2024/01/20 02:22:10;;;;;;;23.20;12.60;;;1.00;84.00;;;;;;5143699;27;20104;-70
2024/01/20 02:24:39;;;;;;;25.13;14.30;;;1.00;84.20;;;;;;5129984;27;20051;-70
2024/01/20 02:27:06;;;;;;;27.85;17.17;;;1.00;84.10;;;;;;5130400;27;20277;-70
2024/01/20 02:29:33;;;;;;;25.02;15.05;;;1.00;84.20;;;;;;5129719;27;20660;-70
2024/01/20 02:32:00;;;;;;;25.92;13.73;;;1.00;84.10;;;;;;5131954;27;21050;-69
2024/01/20 02:34:27;;;;;;;25.55;13.90;;;1.00;84.10;;;;;;5133499;27;20137;-70
2024/01/20 02:36:54;;;;;;;22.50;12.73;;;1.00;84.00;;;;;;5167344;27;20047;-70
2024/01/20 02:39:23;;;;;;;26.80;15.70;;;1.00;84.10;;;;;;5149567;27;20273;-71
2024/01/20 02:41:49;;;;;;;26.60;15.55;;;1.00;84.00;;;;;;5121807;27;20130;-70
2024/01/20 02:44:17;;;;;;;24.77;14.80;;;1.00;84.00;;;;;;5149218;27;20047;-70
2024/01/20 02:46:44;;;;;;;28.70;17.42;;;1.00;84.00;;;;;;5149834;27;20055;-69
2024/01/20 02:49:11;;;;;;;27.27;16.33;;;1.00;84.10;;;;;;5141797;27;20120;-70
2024/01/20 02:51:38;;;;;;;30.50;16.88;;;1.00;84.10;;;;;;5159712;27;20417;-70
2024/01/20 02:54:05;;;;;;;30.13;15.63;;;1.00;84.20;;;;;;5145595;27;20038;-70
2024/01/20 02:56:34;;;;;;;24.73;16.05;;;1.00;84.00;;;;;;5128144;27;20100;-70
2024/01/20 02:59:01;;;;;;;21.92;11.77;;;1.10;84.00;;;;;;5158715;27;20133;-70
2024/01/20 03:01:28;;;;;;;26.80;16.83;;;1.10;83.90;;;;;;5138064;27;20039;-70
2024/01/20 03:03:55;;;;;;;27.35;15.77;;;1.10;83.90;;;;;;5169328;27;20855;-70
2024/01/20 03:06:22;;;;;;;22.27;14.02;;;1.00;83.90;;;;;;5166646;27;20107;-70
2024/01/20 03:08:49;;;;;;;24.65;13.75;;;1.00;83.80;;;;;;5149111;27;20046;-70
2024/01/20 03:11:16;;;;;;;28.65;17.17;;;1.00;83.70;;;;;;5128472;27;20126;-70
2024/01/20 03:13:44;;;;;;;28.43;17.23;;;1.00;83.50;;;;;;5147971;27;20055;-70
2024/01/20 03:16:11;;;;;;;29.25;16.33;;;1.00;83.50;;;;;;5153189;27;20288;-70
2024/01/20 03:18:39;;;;;;;28.08;15.52;;;1.00;83.50;;;;;;5164068;27;20135;-70
2024/01/20 03:21:07;;;;;;;25.58;13.73;;;1.00;83.40;;;;;;5160448;27;20062;-71
2024/01/20 03:23:34;;;;;;;30.15;19.15;;;1.00;83.30;;;;;;5120799;27;20104;-70
2024/01/20 03:26:07;;;;;;;16.87;9.77;;;1.00;83.40;;;;;;5148532;27;20154;-70
2024/01/20 03:28:33;;;;;;;27.45;16.77;;;1.00;83.40;;;;;;5128922;27;20362;-70
2024/01/20 03:31:02;;;;;;;29.52;15.43;;;0.90;83.40;;;;;;5138749;27;20061;-71
2024/01/20 03:33:29;;;;;;;32.25;15.77;;;0.90;83.30;;;;;;5162817;27;20127;-70
2024/01/20 03:35:56;;;;;;;29.45;14.95;;;0.90;83.40;;;;;;5141871;27;20283;-70
2024/01/20 03:38:23;;;;;;;29.33;16.70;;;0.90;83.40;;;;;;5147827;27;20603;-70
2024/01/20 03:40:50;;;;;;;29.90;18.20;;;0.80;83.40;;;;;;5135669;27;20268;-70
2024/01/20 03:43:17;;;;;;;22.20;12.85;;;0.80;83.40;;;;;;5140414;27;20058;-70
2024/01/20 03:45:44;;;;;;;26.98;14.88;;;0.80;83.30;;;;;;5148342;27;20134;-70
2024/01/20 03:48:13;;;;;;;29.17;16.00;;;0.80;83.10;;;;;;5146194;27;20058;-70
2024/01/20 03:50:40;;;;;;;31.23;17.90;;;0.80;83.10;;;;;;5146797;27;20137;-70
2024/01/20 03:53:07;;;;;;;30.75;15.57;;;0.80;83.30;;;;;;5129269;27;20242;-70
2024/01/20 03:55:34;;;;;;;31.40;16.50;;;0.80;83.40;;;;;;5141719;27;20047;-71
2024/01/20 03:58:01;;;;;;;24.05;12.40;;;0.80;83.40;;;;;;5147191;27;20047;-70
2024/01/20 04:00:28;;;;;;;29.20;15.93;;;0.80;83.50;;;;;;5145159;27;20061;-70
2024/01/20 04:02:55;;;;;;;31.60;17.53;;;0.80;83.50;;;;;;5128873;27;20131;-69
2024/01/20 04:05:24;;;;;;;28.73;14.13;;;0.80;83.60;;;;;;5132141;27;20296;-70
2024/01/20 04:07:51;;;;;;;24.02;10.63;;;0.80;83.60;;;;;;5148971;27;20136;-70
2024/01/20 04:10:18;;;;;;;27.52;14.40;;;0.80;83.70;;;;;;5140502;27;20043;-70
2024/01/20 04:12:45;;;;;;;33.67;17.33;;;0.80;83.70;;;;;;5151984;27;20062;-70
2024/01/20 04:15:12;;;;;;;28.97;15.20;;;0.80;83.80;;;;;;5135303;27;20820;-70
2024/01/20 04:17:39;;;;;;;31.08;16.55;;;0.80;83.80;;;;;;5168353;27;20318;-71
2024/01/20 04:20:08;;;;;;;20.75;10.75;;;0.80;83.80;;;;;;5134885;27;20132;-71
2024/01/20 04:22:36;;;;;;;31.60;15.85;;;0.80;83.90;;;;;;5130139;27;20498;-70
2024/01/20 04:25:03;;;;;;;32.05;15.32;;;0.80;83.70;;;;;;5134149;27;20058;-70
2024/01/20 04:27:30;;;;;;;27.50;13.87;;;0.80;83.70;;;;;;5128048;27;20136;-70
2024/01/20 04:29:57;;;;;;;30.25;14.23;;;0.80;83.70;;;;;;5146704;27;20405;-70
2024/01/20 04:32:24;;;;;;;27.27;13.85;;;0.80;83.70;;;;;;5138740;27;20586;-70
2024/01/20 04:34:51;;;;;;;27.15;13.07;;;0.80;83.70;;;;;;5127797;27;20077;-71
2024/01/20 04:37:18;;;;;;;34.13;16.30;;;0.80;83.70;;;;;;5145406;27;20678;-70
2024/01/20 04:39:46;;;;;;;34.67;16.97;;;0.80;83.70;;;;;;5143907;27;20138;-70
2024/01/20 04:42:13;;;;;;;15.45;7.70;;;0.80;83.60;;;;;;5128319;27;20309;-70
2024/01/20 04:44:40;;;;;;;34.17;17.40;;;0.80;83.60;;;;;;5138336;27;20057;-70
2024/01/20 04:47:07;;;;;;;29.30;13.90;;;0.80;83.50;;;;;;5145035;27;20557;-70
2024/01/20 04:49:34;;;;;;;29.88;15.75;;;0.80;83.40;;;;;;5141390;27;20096;-70
2024/01/20 04:52:02;;;;;;;33.07;15.43;;;0.80;83.40;;;;;;5134200;27;20517;-70
2024/01/20 04:54:29;;;;;;;39.00;19.10;;;0.80;83.30;;;;;;5148333;27;20245;-71
2024/01/20 04:56:58;;;;;;;29.40;14.95;;;0.80;83.30;;;;;;5135715;27;20130;-70
2024/01/20 04:59:25;;;;;;;32.33;15.13;;;0.80;83.20;;;;;;5127725;27;20051;-70
2024/01/20 05:01:52;;;;;;;35.60;15.77;;;0.80;83.20;;;;;;5148933;27;20071;-70
2024/01/20 05:04:20;;;;;;;33.17;15.00;;;0.80;83.20;;;;;;5148297;27;20047;-71
2024/01/20 05:06:48;;;;;;;32.83;15.02;;;0.80;83.30;;;;;;5132362;27;20387;-71
2024/01/20 05:09:15;;;;;;;32.20;15.63;;;0.80;83.20;;;;;;5127094;27;20059;-70
2024/01/20 05:11:42;;;;;;;34.90;15.73;;;0.80;83.10;;;;;;5147035;27;20051;-70
2024/01/20 05:14:11;;;;;;;34.40;15.35;;;0.80;83.10;;;;;;5127583;27;20567;-70
2024/01/20 05:16:38;;;;;;;30.57;14.10;;;0.70;83.10;;;;;;5153820;27;20079;-70
2024/01/20 05:19:05;;;;;;;42.70;19.15;;;0.70;83.00;;;;;;5146205;27;20355;-70
2024/01/20 05:21:31;;;;;;;35.30;15.00;;;0.70;83.00;;;;;;5145288;27;20138;-70
2024/01/20 05:23:58;;;;;;;32.00;14.48;;;0.60;82.90;;;;;;5151465;27;20973;-70
2024/01/20 05:26:25;;;;;;;39.50;19.23;;;0.60;82.90;;;;;;5153380;27;20157;-70
2024/01/20 05:28:52;;;;;;;35.87;16.87;;;0.60;82.90;;;;;;5146400;27;20483;-70
2024/01/20 05:31:22;;;;;;;38.42;17.20;;;0.60;82.80;;;;;;5145742;27;20267;-71
2024/01/20 05:33:49;;;;;;;37.53;17.45;;;0.60;83.00;;;;;;5126444;27;20103;-70
2024/01/20 05:36:16;;;;;;;37.28;16.63;;;0.60;83.00;;;;;;5145616;27;20059;-70
2024/01/20 05:38:43;;;;;;;39.10;17.40;;;0.60;83.00;;;;;;5127128;27;20039;-70
2024/01/20 05:41:10;;;;;;;35.17;15.03;;;0.60;83.20;;;;;;5129699;27;20145;-70
2024/01/20 05:43:37;;;;;;;39.30;17.10;;;0.60;83.20;;;;;;5141026;27;20297;-70
2024/01/20 05:46:07;;;;;;;37.30;18.13;;;0.60;83.30;;;;;;5148321;27;20533;-70
2024/01/20 05:48:36;;;;;;;28.08;11.75;;;0.50;83.30;;;;;;5134161;27;20054;-70
2024/01/20 05:51:03;;;;;;;36.60;17.60;;;0.60;83.20;;;;;;5127231;27;20524;-70
2024/01/20 05:53:30;;;;;;;40.13;16.83;;;0.50;83.00;;;;;;5127638;27;20140;-71
2024/01/20 05:55:57;;;;;;;30.35;13.23;;;0.50;83.20;;;;;;5109752;27;20838;-70
2024/01/20 05:58:24;;;;;;;31.35;14.50;;;0.50;83.10;;;;;;5142940;27;20142;-70
2024/01/20 06:00:51;;;;;;;39.88;18.08;;;0.60;83.10;;;;;;5151707;27;20047;-69
2024/01/20 06:03:18;;;;;;;36.35;17.00;;;0.50;83.20;;;;;;5130179;27;20147;-71
2024/01/20 06:05:47;;;;;;;36.23;15.13;;;0.50;83.30;;;;;;5147093;27;20074;-70
2024/01/20 06:08:14;;;;;;;37.30;15.90;;;0.50;83.20;;;;;;5165230;27;20751;-70
2024/01/20 06:10:41;;;;;;;37.05;18.02;;;0.50;83.20;;;;;;5124355;27;20150;-70
2024/01/20 06:13:08;;;;;;;41.42;18.75;;;0.50;83.20;;;;;;5159804;27;20082;-70
2024/01/20 06:15:35;;;;;;;33.15;15.02;;;0.50;83.20;;;;;;5166124;27;20125;-70
2024/01/20 06:18:02;;;;;;;40.60;16.23;;;0.50;83.30;;;;;;5145973;27;20047;-71
2024/01/20 06:20:29;;;;;;;34.33;13.02;;;0.50;83.20;;;;;;5144331;27;20252;-71
2024/01/20 06:22:57;;;;;;;39.35;17.65;;;0.50;83.20;;;;;;5158372;27;20196;-70
2024/01/20 06:25:24;;;;;;;35.65;16.05;;;0.50;83.20;;;;;;5142954;27;20137;-70
2024/01/20 06:27:51;;;;;;;35.78;14.75;;;0.50;83.20;;;;;;5140809;27;20119;-70
2024/01/20 06:30:18;;;;;;;39.77;16.57;;;0.50;83.20;;;;;;5154921;27;20153;-70
2024/01/20 06:32:45;;;;;;;39.72;17.90;;;0.50;83.30;;;;;;5142351;27;20284;-70
2024/01/20 06:35:12;;;;;;;35.38;15.68;;;0.50;83.40;;;;;;5144411;27;20849;-71
2024/01/20 06:37:39;;;;;;;34.15;14.65;;;0.50;83.40;;;;;;5137118;27;20051;-70
2024/01/20 06:40:09;;;;;;;37.03;14.90;;;0.50;83.30;;;;;;5103849;27;20051;-71
2024/01/20 06:42:36;;;;;;;37.33;17.20;;;0.50;83.40;;;;;;5140283;27;20134;-70
2024/01/20 06:45:03;;;;;;;38.53;16.85;;;0.50;83.60;;;;;;5132163;27;20253;-71
2024/01/20 06:47:30;;;;;;;36.00;15.68;;;0.50;83.50;;;;;;5137853;27;20924;-71
2024/01/20 06:49:57;;;;;;;35.78;15.57;;;0.50;83.60;;;;;;5144522;27;20528;-71
2024/01/20 06:52:24;;;;;;;35.38;16.17;;;0.50;83.60;;;;;;5152760;27;21062;-71
2024/01/20 06:54:51;;;;;;;35.17;15.90;;;0.50;83.60;;;;;;5142757;27;20083;-70
2024/01/20 06:57:20;;;;;;;31.98;13.40;;;0.50;83.80;;;;;;5146274;27;20276;-71
2024/01/20 06:59:47;;;;;;;31.55;12.65;;;0.50;83.70;;;;;;5126662;27;20526;-70
2024/01/20 07:02:14;;;;;;;32.95;15.13;;;0.50;83.80;;;;;;5140880;27;20137;-71
2024/01/20 07:04:41;;;;;;;33.60;17.33;;;0.50;83.80;;;;;;5133346;27;20122;-71
2024/01/20 07:07:08;;;;;;;32.00;12.77;;;0.50;83.90;;;;;;5166743;27;20095;-71
2024/01/20 07:09:40;;;;;;;35.88;14.88;;;0.50;83.80;;;;;;5146457;27;20236;-69
2024/01/20 07:12:08;;;;;;;34.67;15.23;;;0.50;83.90;;;;;;5143548;27;20246;-72
2024/01/20 07:14:36;;;;;;;36.38;15.10;;;0.50;84.00;;;;;;5162725;27;20050;-71
2024/01/20 07:17:05;;;;;;;32.95;15.70;;;0.50;84.00;;;;;;5146265;27;20051;-71
2024/01/20 07:19:32;;;;;;;34.67;17.03;;;0.50;84.10;;;;;;5141823;27;20046;-71
2024/01/20 07:21:58;;;;;;;33.78;13.85;;;0.50;84.00;;;;;;5121163;27;20806;-71
2024/01/20 07:24:27;;;;;;;33.72;13.30;;;0.50;84.00;;;;;;5139058;27;20071;-72
2024/01/20 07:26:54;;;;;;;33.90;13.77;;;0.50;83.90;;;;;;5146815;27;20042;-71
2024/01/20 07:29:21;;;;;;;32.58;13.88;;;0.50;84.00;;;;;;5147371;27;20460;-71
2024/01/20 07:31:50;;;;;;;31.67;12.57;;;0.50;84.10;;;;;;5125659;27;20222;-70
2024/01/20 07:34:17;;;;;;;30.58;14.02;;;0.50;84.10;;;;;;5138331;27;20272;-71
2024/01/20 07:36:44;;;;;;;36.58;16.63;;;0.50;83.90;;;;;;5149638;27;20501;-70
2024/01/20 07:39:11;;;;;;;34.10;16.70;;;0.50;83.90;;;;;;5149966;27;20134;-71
2024/01/20 07:41:38;;;;;;;32.10;14.98;;;0.50;83.90;;;;;;5140702;27;20130;-70
2024/01/20 07:44:05;;;;;;;35.73;14.43;;;0.50;83.90;;;;;;5148136;27;20047;-70
2024/01/20 07:46:32;;;;;;;33.85;16.17;;;0.50;83.70;;;;;;5111788;27;20799;-71
2024/01/20 07:49:00;;;;;;;32.35;12.65;;;0.50;83.80;;;;;;5128170;27;20134;-70
2024/01/20 07:51:27;;;;;;;32.58;13.77;;;0.50;83.80;;;;;;5145921;27;20184;-70
2024/01/20 07:53:54;;;;;;;33.33;14.48;;;0.50;84.10;;;;;;5128177;27;20531;-71
2024/01/20 07:56:21;;;;;;;37.07;15.07;;;0.50;84.10;;;;;;5134455;27;20130;-70
2024/01/20 07:58:48;;;;;;;35.33;14.52;;;0.50;84.20;;;;;;5143297;27;20443;-70
2024/01/20 08:01:17;;;;;;;37.53;16.67;;;0.50;84.40;;;;;;5129292;27;20424;-70
2024/01/20 08:03:44;;;;;;;31.63;13.63;;;0.50;84.50;;;;;;5134304;27;20053;-71
2024/01/20 08:06:13;;;;;;;30.17;12.80;;;0.50;84.70;;;;;;5145029;27;20141;-70
2024/01/20 08:08:40;;;;;;;35.97;15.17;;;0.50;84.60;;;;;;5164342;27;21127;-70
2024/01/20 08:11:07;;;;;;;33.22;13.73;;;0.50;84.60;;;;;;5128801;27;20389;-70
2024/01/20 08:13:34;;;;;;;35.60;14.38;;;0.50;84.60;;;;;;5129810;27;20153;-71
2024/01/20 08:16:00;;;;;;;33.60;14.10;;;0.50;84.80;;;;;;5147677;27;20126;-71
2024/01/20 08:18:27;;;;;;;39.22;14.57;;;0.60;84.70;;;;;;5129112;27;20645;-70
2024/01/20 08:20:55;;;;;;;34.17;14.97;;;0.60;84.70;;;;;;5147491;27;20090;-71
2024/01/20 08:23:23;;;;;;;29.67;12.82;;;0.60;84.70;;;;;;5152915;27;20273;-71
2024/01/20 08:25:50;;;;;;;36.00;16.23;;;0.60;84.80;;;;;;5148076;27;20530;-70
2024/01/20 08:28:17;;;;;;;35.03;13.52;;;0.60;84.90;;;;;;5147269;27;20126;-71
2024/01/20 08:30:44;;;;;;;30.58;14.52;;;0.60;84.90;;;;;;5147419;27;20530;-70
2024/01/20 08:33:11;;;;;;;30.77;13.03;;;0.60;85.00;;;;;;5128552;27;20568;-70
2024/01/20 08:35:38;;;;;;;32.53;14.35;;;0.70;85.00;;;;;;5128649;27;20275;-69
2024/01/20 08:38:05;;;;;;;32.22;12.15;;;0.70;85.10;;;;;;5128909;27;20047;-70
2024/01/20 08:40:33;;;;;;;36.28;13.93;;;0.80;85.20;;;;;;5153120;27;20155;-70
2024/01/20 08:43:00;;;;;;;33.10;13.45;;;0.80;85.20;;;;;;5149475;27;20078;-70
2024/01/20 08:45:27;;;;;;;30.57;12.40;;;0.80;85.10;;;;;;5159965;27;20108;-71
2024/01/20 08:47:54;;;;;;;30.60;13.18;;;0.80;85.00;;;;;;5128168;27;20285;-71
2024/01/20 08:50:21;;;;;;;33.17;13.85;;;0.90;85.00;;;;;;5146609;27;20083;-70
2024/01/20 08:52:48;;;;;;;32.80;14.88;;;0.90;84.90;;;;;;5128902;27;20104;-70
2024/01/20 08:55:15;;;;;;;31.35;13.52;;;1.00;84.80;;;;;;5128667;27;20054;-70
2024/01/20 08:57:43;;;;;;;31.03;12.40;;;1.00;84.90;;;;;;5153503;27;20058;-71
2024/01/20 09:00:12;;;;;;;31.77;12.48;;;1.00;84.80;;;;;;5143925;27;20309;-71
2024/01/20 09:02:39;;;;;;;31.67;14.30;;;1.00;84.70;;;;;;5147419;27;20051;-70
2024/01/20 09:05:07;;;;;;;32.00;13.82;;;1.00;84.70;;;;;;5128629;27;20524;-71
2024/01/20 09:07:34;;;;;;;32.67;13.40;;;1.10;84.60;;;;;;5147171;27;20112;-71
2024/01/20 09:10:03;;;;;;;22.60;9.33;;;1.10;84.50;;;;;;5128568;27;20717;-71
2024/01/20 09:12:30;;;;;;;31.30;12.07;;;1.10;84.40;;;;;;5110987;27;20264;-71
2024/01/20 09:14:59;;;;;;;29.73;12.98;;;1.10;84.40;;;;;;5145018;27;20050;-71
2024/01/20 09:17:26;;;;;;;26.88;11.18;;;1.10;84.40;;;;;;5147338;27;20143;-71
2024/01/20 09:19:52;;;;;;;33.50;14.38;;;1.10;84.40;;;;;;5147196;27;20568;-71
2024/01/20 09:22:20;;;;;;;30.40;12.93;;;1.10;84.40;;;;;;5127445;27;20096;-71
2024/01/20 09:24:46;;;;;;;34.78;14.82;;;1.10;84.50;;;;;;5128595;27;20739;-71
2024/01/20 09:27:14;;;;;;;35.08;12.80;;;1.20;84.30;;;;;;5149247;27;20135;-70
2024/01/20 09:29:41;;;;;;;29.70;11.73;;;1.20;84.00;;;;;;5130233;27;20573;-71
2024/01/20 09:32:09;;;;;;;27.58;12.02;;;1.20;83.90;;;;;;5126017;27;20054;-71
2024/01/20 09:34:36;;;;;;;21.73;8.97;;;1.20;83.90;;;;;;5128020;27;20138;-71
2024/01/20 09:37:03;;;;;;;28.88;12.25;;;1.30;83.90;;;;;;5127803;27;20297;-71
2024/01/20 09:39:30;;;;;;;32.22;13.45;;;1.30;83.90;;;;;;5127857;27;20055;-70
2024/01/20 09:41:58;;;;;;;30.42;12.73;;;1.30;83.90;;;;;;5127206;27;20142;-71
2024/01/20 09:44:25;;;;;;;28.48;12.38;;;1.30;84.00;;;;;;5110682;27;20104;-71
2024/01/20 09:46:52;;;;;;;28.50;11.97;;;1.40;84.00;;;;;;5146693;27;20140;-71
2024/01/20 09:49:20;;;;;;;31.63;13.43;;;1.40;84.00;;;;;;5154303;27;20718;-71
2024/01/20 09:51:51;;;;;;;27.65;10.75;;;1.40;84.10;;;;;;5141733;27;20047;-71
2024/01/20 09:54:21;;;;;;;23.02;8.98;;;1.40;84.00;;;;;;5127428;27;20043;-70
2024/01/20 09:56:48;;;;;;;28.25;10.80;;;1.40;84.10;;;;;;5127580;27;20150;-70
2024/01/20 09:59:16;;;;;;;25.07;10.83;;;1.40;84.10;;;;;;5127499;27;20138;-70
2024/01/20 10:01:45;;;;;;;28.73;10.68;;;1.40;84.10;;;;;;5167023;27;20306;-70
2024/01/20 10:04:14;;;;;;;30.83;11.63;;;1.50;84.20;;;;;;5167404;27;20051;-70
2024/01/20 10:06:43;;;;;;;30.88;11.55;;;1.50;84.10;;;;;;5145444;27;20062;-71
2024/01/20 10:09:09;;;;;;;26.25;11.10;;;1.50;84.00;;;;;;5167463;27;20116;-71
2024/01/20 10:11:36;;;;;;;24.63;10.77;;;1.60;83.80;;;;;;5136821;27;20538;-71
2024/01/20 10:14:03;;;;;;;25.73;8.90;;;1.60;83.70;;;;;;5127990;27;20292;-70
2024/01/20 10:16:39;;;;;;;29.17;11.55;;;1.60;83.70;;;;;;5138132;27;20827;-70
2024/01/20 10:19:06;;;;;;;28.83;12.73;;;1.60;83.70;;;;;;5168194;27;20051;-72
2024/01/20 10:21:39;;;;;;;27.50;13.23;;;1.70;83.50;;;;;;5138273;27;20082;-70
2024/01/20 10:24:08;;;;;;;26.77;12.57;;;1.70;83.40;;;;;;5139756;27;20043;-70
2024/01/20 10:26:42;;;;;;;32.22;12.48;;;1.70;83.30;;;;;;5156207;27;20372;-70
2024/01/20 10:29:09;;;;;;;28.35;11.98;;;1.80;83.10;;;;;;5127386;27;20070;-70
2024/01/20 10:31:37;;;;;;;24.20;10.32;;;1.70;83.10;;;;;;5127108;27;20048;-72
2024/01/20 10:34:03;;;;;;;26.42;10.60;;;1.80;83.10;;;;;;5141387;27;20140;-71
2024/01/20 10:36:32;;;;;;;26.67;11.07;;;1.80;83.00;;;;;;5150195;27;20672;-71
2024/01/20 10:39:01;;;;;;;25.23;11.00;;;1.80;83.30;;;;;;5150044;27;20720;-71
2024/01/20 10:41:30;;;;;;;29.85;13.82;;;1.80;83.00;;;;;;5152571;27;20054;-70
2024/01/20 10:44:02;;;;;;;28.00;11.73;;;1.80;82.90;;;;;;5150062;27;20055;-72
2024/01/20 10:46:30;;;;;;;31.77;14.30;;;1.80;82.90;;;;;;5157948;27;20055;-70
2024/01/20 10:49:01;;;;;;;24.27;10.80;;;1.80;82.90;;;;;;5137990;27;20065;-70
2024/01/20 10:51:29;;;;;;;27.13;12.57;;;1.90;82.80;;;;;;5149056;27;20245;-71
2024/01/20 10:53:56;;;;;;;27.65;12.05;;;1.90;82.70;;;;;;5131168;27;20051;-71
2024/01/20 10:56:24;;;;;;;30.42;13.57;;;1.90;82.80;;;;;;5149401;27;20047;-71
2024/01/20 10:58:59;;;;;;;30.30;12.48;;;1.90;82.90;;;;;;5147368;27;20055;-71
2024/01/20 11:01:26;;;;;;;27.63;11.53;;;1.90;82.90;;;;;;5149087;27;20133;-71
2024/01/20 11:03:53;;;;;;;30.67;12.85;;;1.90;82.80;;;;;;5130680;27;20415;-71
2024/01/20 11:06:20;;;;;;;24.80;10.02;;;1.90;82.60;;;;;;5149232;27;20126;-70
2024/01/20 11:08:51;;;;;;;28.65;12.68;;;2.00;82.50;;;;;;5130163;27;20139;-71
2024/01/20 11:11:19;;;;;;;26.05;11.68;;;2.00;82.50;;;;;;5130270;27;20047;-70
2024/01/20 11:13:47;;;;;;;28.80;11.87;;;2.10;82.10;;;;;;5149010;27;20075;-72
2024/01/20 11:16:20;;;;;;;31.33;13.82;;;2.00;82.00;;;;;;5165589;27;20269;-71
2024/01/20 11:18:47;;;;;;;26.77;10.88;;;2.00;82.30;;;;;;5153121;27;20501;-70
2024/01/20 11:21:16;;;;;;;28.77;12.70;;;2.00;82.20;;;;;;5148757;27;20146;-70
2024/01/20 11:23:47;;;;;;;24.17;11.80;;;2.10;82.10;;;;;;5147833;27;20775;-70
2024/01/20 11:26:13;;;;;;;31.93;13.47;;;2.10;82.20;;;;;;5129321;27;20070;-70
2024/01/20 11:28:43;;;;;;;27.13;12.70;;;2.10;82.20;;;;;;5147725;27;20283;-71
2024/01/20 11:31:21;;;;;;;23.17;10.82;;;2.10;82.30;;;;;;5112784;27;20051;-71
2024/01/20 11:33:48;;;;;;;30.42;15.38;;;2.10;82.40;;;;;;5167755;27;20196;-71
2024/01/20 11:36:16;;;;;;;24.63;10.85;;;2.20;82.20;;;;;;5137670;27;20055;-71
2024/01/20 11:38:44;;;;;;;30.23;12.47;;;2.20;82.10;;;;;;5154189;27;20596;-70
2024/01/20 11:41:12;;;;;;;28.02;12.20;;;2.20;82.10;;;;;;5157468;27;20786;-72
2024/01/20 11:43:45;;;;;;;25.52;11.63;;;2.20;82.20;;;;;;5154064;27;20047;-71
2024/01/20 11:46:12;;;;;;;28.77;12.55;;;2.20;82.20;;;;;;5132573;27;20055;-71
2024/01/20 11:48:42;;;;;;;31.13;12.45;;;2.20;82.30;;;;;;5149205;27;20820;-71
2024/01/20 11:51:09;;;;;;;26.83;12.90;;;2.20;82.20;;;;;;5168520;27;20981;-71
2024/01/20 11:53:38;;;;;;;28.83;14.00;;;2.20;82.30;;;;;;5168933;27;20391;-71
2024/01/20 11:56:05;;;;;;;31.63;14.15;;;2.20;82.30;;;;;;5150550;27;20138;-71
2024/01/20 11:58:32;;;;;;;30.42;14.20;;;2.30;82.20;;;;;;5148298;27;20535;-71
2024/01/20 12:01:01;;;;;;;28.58;11.93;;;2.30;81.90;;;;;;5150159;27;20078;-71
2024/01/20 12:03:28;;;;;;;30.37;12.47;;;2.20;82.00;;;;;;5149501;27;20054;-71
2024/01/20 12:05:56;;;;;;;27.55;11.95;;;2.20;82.00;;;;;;5145748;27;20341;-71
2024/01/20 12:08:23;;;;;;;31.50;13.07;;;2.20;82.10;;;;;;5129223;27;20067;-71
2024/01/20 12:10:51;;;;;;;25.50;11.27;;;2.20;82.10;;;;;;5147736;27;20138;-71
2024/01/20 12:13:19;;;;;;;26.40;12.43;;;2.20;82.10;;;;;;5111596;27;20142;-71
2024/01/20 12:15:49;;;;;;;28.13;12.50;;;2.20;82.20;;;;;;5147184;27;20416;-71
2024/01/20 12:18:17;;;;;;;30.98;13.88;;;2.30;82.10;;;;;;5128376;27;20245;-71
2024/01/20 12:20:45;;;;;;;32.58;10.98;;;2.30;82.10;;;;;;5167187;27;20042;-71
2024/01/20 12:23:18;;;;;;;28.95;13.90;;;2.30;82.10;;;;;;5165667;27;20651;-71
2024/01/20 12:25:45;;;;;;;28.08;12.60;;;2.30;82.00;;;;;;5149478;27;20062;-71
2024/01/20 12:28:12;;;;;;;25.93;11.50;;;2.30;81.70;;;;;;5131882;27;20051;-71
2024/01/20 12:30:39;;;;;;;29.25;13.60;;;2.30;81.70;;;;;;5130686;27;20845;-71
2024/01/20 12:33:06;;;;;;;28.27;13.20;;;2.30;81.80;;;;;;5147332;27;20059;-71
2024/01/20 12:35:33;;;;;;;27.33;11.10;;;2.30;81.80;;;;;;5147474;27;20055;-71
2024/01/20 12:37:59;;;;;;;25.60;12.13;;;2.30;81.80;;;;;;5147034;27;20946;-71
2024/01/20 12:40:29;;;;;;;28.27;10.93;;;2.30;81.80;;;;;;5129672;27;20112;-71